createdAt,value
2024-04-19T00:01:23.849Z,100645.53
2024-04-19T00:03:51.773Z,100636.60
2024-04-19T00:06:19.349Z,100640.53
2024-04-19T00:08:47.096Z,100642.43
2024-04-19T00:11:14.834Z,100640.95
2024-04-19T00:13:42.374Z,100637.48
2024-04-19T00:16:09.857Z,100634.23
2024-04-19T00:18:37.396Z,100623.46
2024-04-19T00:21:05.141Z,100631.64
2024-04-19T00:23:32.645Z,100626.27
2024-04-19T00:26:00.275Z,100624.27
2024-04-19T00:28:28.541Z,100619.04
2024-04-19T00:30:56.694Z,100620.10
2024-04-19T00:33:24.349Z,100617.84
2024-04-19T00:35:51.970Z,100619.20
2024-04-19T00:38:20.499Z,100615.03
2024-04-19T00:40:48.000Z,100611.45
2024-04-19T00:43:15.550Z,100606.55
2024-04-19T00:45:43.137Z,100603.74
2024-04-19T00:48:15.125Z,100601.05
2024-04-19T00:50:46.236Z,100600.05
2024-04-19T00:53:16.027Z,100594.52
2024-04-19T00:55:43.520Z,100597.94
2024-04-19T00:58:11.033Z,100596.33
2024-04-19T01:00:38.701Z,100592.98
2024-04-19T01:03:06.476Z,100588.09
2024-04-19T01:05:34.083Z,100601.27
2024-04-19T01:08:02.154Z,100613.52
2024-04-19T01:10:30.778Z,100618.30
2024-04-19T01:12:58.935Z,100621.09
2024-04-19T01:15:26.926Z,100611.95
2024-04-19T01:17:56.974Z,100595.86
2024-04-19T01:20:24.594Z,100582.63
2024-04-19T01:22:52.525Z,100574.29
2024-04-19T01:25:26.620Z,100576.71
2024-04-19T01:27:54.162Z,100566.04
2024-04-19T01:30:21.835Z,100562.31
2024-04-19T01:32:49.530Z,100563.48
2024-04-19T01:35:17.198Z,100559.27
2024-04-19T01:37:45.838Z,100561.73
2024-04-19T01:40:13.374Z,100556.70
2024-04-19T01:42:40.894Z,100559.15
2024-04-19T01:45:08.419Z,100554.92
2024-04-19T01:47:36.570Z,100549.88
2024-04-19T01:50:07.573Z,100554.88
2024-04-19T01:52:35.335Z,100546.55
2024-04-19T01:55:03.465Z,100538.88
2024-04-19T01:57:31.392Z,100533.50
2024-04-19T01:59:58.949Z,100530.41
2024-04-19T02:02:28.150Z,100520.61
2024-04-19T02:04:57.101Z,100521.70
2024-04-19T02:07:24.596Z,100518.34
2024-04-19T02:09:52.149Z,100514.36
2024-04-19T02:12:19.844Z,100516.70
2024-04-19T02:14:47.418Z,100512.35
2024-04-19T02:17:14.981Z,100511.86
2024-04-19T02:19:44.562Z,100510.44
2024-04-19T02:22:12.042Z,100506.18
2024-04-19T02:24:42.448Z,100501.79
2024-04-19T02:27:32.411Z,100498.84
2024-04-19T02:30:20.055Z,100490.93
2024-04-19T02:32:47.668Z,100496.81
2024-04-19T02:35:15.508Z,100492.69
2024-04-19T02:37:44.051Z,100486.45
2024-04-19T02:40:11.569Z,100483.18
2024-04-19T02:42:40.288Z,100480.11
2024-04-19T02:45:08.208Z,100475.63
2024-04-19T02:47:37.343Z,100479.54
2024-04-19T02:50:04.989Z,100475.06
2024-04-19T02:52:32.562Z,100472.88
2024-04-19T02:55:03.706Z,100470.33
2024-04-19T02:57:33.082Z,100464.26
2024-04-19T03:00:00.706Z,100464.17
2024-04-19T03:02:28.627Z,100458.77
2024-04-19T03:04:56.393Z,100456.14
2024-04-19T03:07:23.864Z,100455.43
2024-04-19T03:09:51.781Z,100450.13
2024-04-19T03:12:19.334Z,100448.30
2024-04-19T03:14:47.626Z,100446.34
2024-04-19T03:17:15.213Z,100437.55
2024-04-19T03:19:42.908Z,100439.09
2024-04-19T03:22:10.477Z,100438.70
2024-04-19T03:24:38.011Z,100434.81
2024-04-19T03:27:05.776Z,100434.95
2024-04-19T03:29:33.279Z,100430.46
2024-04-19T03:32:00.842Z,100423.90
2024-04-19T03:34:28.625Z,100423.41
2024-04-19T03:36:56.169Z,100424.28
2024-04-19T03:39:23.775Z,100421.08
2024-04-19T03:41:52.879Z,100419.11
2024-04-19T03:44:39.084Z,100417.83
2024-04-19T03:47:08.100Z,100411.02
2024-04-19T03:49:35.672Z,100409.02
2024-04-19T03:52:03.290Z,100408.20
2024-04-19T03:54:30.861Z,100406.11
2024-04-19T03:56:58.676Z,100412.41
2024-04-19T03:59:27.716Z,100402.36
2024-04-19T04:01:55.223Z,100405.80
2024-04-19T04:04:22.856Z,100407.25
2024-04-19T04:06:51.094Z,100406.90
2024-04-19T04:09:18.947Z,100402.52
2024-04-19T04:11:46.497Z,100402.73
2024-04-19T04:14:14.084Z,100406.58
2024-04-19T04:16:42.611Z,100406.17
2024-04-19T04:19:10.192Z,100393.34
2024-04-19T04:21:37.876Z,100395.63
2024-04-19T04:24:06.311Z,100389.59
2024-04-19T04:26:33.831Z,100386.31
2024-04-19T04:29:01.530Z,100384.11
2024-04-19T04:31:29.283Z,100385.16
2024-04-19T04:33:58.860Z,100387.21
2024-04-19T04:36:26.952Z,100381.73
2024-04-19T04:38:54.448Z,100377.44
2024-04-19T04:41:22.200Z,100370.84
2024-04-19T04:43:50.136Z,100372.36
2024-04-19T04:46:17.698Z,100372.14
2024-04-19T04:48:45.310Z,100370.10
2024-04-19T04:51:13.742Z,100370.02
2024-04-19T04:53:41.296Z,100367.90
2024-04-19T04:56:08.867Z,100363.45
2024-04-19T04:58:36.385Z,100362.48
2024-04-19T05:01:04.138Z,100363.45
2024-04-19T05:03:33.237Z,100360.29
2024-04-19T05:06:00.811Z,100352.31
2024-04-19T05:08:31.331Z,100350.48
2024-04-19T05:10:59.028Z,100349.21
2024-04-19T05:13:28.451Z,100348.81
2024-04-19T05:15:56.167Z,100347.59
2024-04-19T05:18:23.775Z,100348.23
2024-04-19T05:20:51.451Z,100336.33
2024-04-19T05:23:19.352Z,100343.67
2024-04-19T05:25:51.730Z,100345.09
2024-04-19T05:28:21.977Z,100343.05
2024-04-19T05:30:50.836Z,100329.73
2024-04-19T05:33:18.509Z,100333.02
2024-04-19T05:35:46.210Z,100333.77
2024-04-19T05:38:13.793Z,100332.96
2024-04-19T05:40:41.943Z,100333.20
2024-04-19T05:43:10.537Z,100328.91
2024-04-19T05:45:38.572Z,100330.38
2024-04-19T05:48:06.759Z,100328.23
2024-04-19T05:50:34.592Z,100322.89
2024-04-19T05:53:02.432Z,100323.59
2024-04-19T05:55:34.061Z,100321.10
2024-04-19T05:58:01.628Z,100319.88
2024-04-19T06:00:31.354Z,100317.39
2024-04-19T06:02:58.999Z,100312.83
2024-04-19T06:05:29.726Z,100313.67
2024-04-19T06:07:58.294Z,100311.91
2024-04-19T06:10:26.095Z,100310.27
2024-04-19T06:12:54.656Z,100310.54
2024-04-19T06:15:22.803Z,100309.36
2024-04-19T06:17:55.404Z,100306.86
2024-04-19T06:20:23.471Z,100308.42
2024-04-19T06:22:51.139Z,100303.70
2024-04-19T06:25:19.677Z,100296.13
2024-04-19T06:27:49.188Z,100301.61
2024-04-19T06:30:16.955Z,100298.27
2024-04-19T06:32:44.636Z,100296.23
2024-04-19T06:35:16.205Z,100295.95
2024-04-19T06:37:43.624Z,100298.30
2024-04-19T06:40:11.488Z,100296.52
2024-04-19T06:42:39.222Z,100293.45
2024-04-19T06:45:08.291Z,100290.05
2024-04-19T06:47:35.991Z,100279.77
2024-04-19T06:50:05.066Z,100276.33
2024-04-19T06:52:32.647Z,100271.96
2024-04-19T06:55:00.394Z,100269.25
2024-04-19T06:57:28.073Z,100264.71
2024-04-19T07:00:06.190Z,100264.66
2024-04-19T07:02:48.662Z,100266.80
2024-04-19T07:05:16.895Z,100260.92
2024-04-19T07:07:49.039Z,100255.24
2024-04-19T07:10:16.777Z,100258.59
2024-04-19T07:12:44.467Z,100253.87
2024-04-19T07:15:12.242Z,100248.35
2024-04-19T07:17:40.954Z,100241.38
2024-04-19T07:20:09.465Z,100244.14
2024-04-19T07:22:37.181Z,100241.45
2024-04-19T07:25:07.697Z,100238.55
2024-04-19T07:27:42.801Z,100236.92
2024-04-19T07:30:15.384Z,100237.19
2024-04-19T07:32:43.044Z,100232.33
2024-04-19T07:35:10.765Z,100229.34
2024-04-19T07:37:38.385Z,100230.59
2024-04-19T07:40:06.818Z,100227.92
2024-04-19T07:42:35.410Z,100227.85
2024-04-19T07:45:03.392Z,100225.69
2024-04-19T07:47:31.567Z,100218.74
2024-04-19T07:49:59.133Z,100216.73
2024-04-19T07:52:27.056Z,100213.95
2024-04-19T07:54:54.770Z,100206.64
2024-04-19T07:57:22.304Z,100207.70
2024-04-19T07:59:51.265Z,100199.23
2024-04-19T08:02:21.645Z,100191.91
2024-04-19T08:04:49.364Z,100188.27
2024-04-19T08:07:24.143Z,100183.05
2024-04-19T08:09:56.663Z,100183.29
2024-04-19T08:12:24.966Z,100183.11
2024-04-19T08:14:52.748Z,100178.46
2024-04-19T08:17:21.094Z,100182.63
2024-04-19T08:19:50.221Z,100178.59
2024-04-19T08:22:18.272Z,100172.58
2024-04-19T08:24:46.023Z,100174.29
2024-04-19T08:27:13.664Z,100169.17
2024-04-19T08:29:41.313Z,100166.92
2024-04-19T08:32:10.351Z,100165.30
2024-04-19T08:34:38.518Z,100162.61
2024-04-19T08:37:06.122Z,100161.58
2024-04-19T08:39:34.205Z,100156.35
2024-04-19T08:42:06.578Z,100151.08
2024-04-19T08:44:35.354Z,100149.86
2024-04-19T08:47:03.123Z,100146.04
2024-04-19T08:49:30.937Z,100141.79
2024-04-19T08:52:13.749Z,100141.23
2024-04-19T08:54:47.318Z,100133.98
2024-04-19T08:57:17.213Z,100121.98
2024-04-19T08:59:48.506Z,100127.98
2024-04-19T09:02:20.274Z,100127.48
2024-04-19T09:04:48.071Z,100129.80
2024-04-19T09:07:15.621Z,100127.14
2024-04-19T09:09:44.723Z,100125.84
2024-04-19T09:12:14.542Z,100116.86
2024-04-19T09:14:42.118Z,100113.77
2024-04-19T09:17:09.630Z,100113.20
2024-04-19T09:19:37.376Z,100113.19
2024-04-19T09:22:05.171Z,100108.89
2024-04-19T09:24:32.783Z,100101.94
2024-04-19T09:27:14.185Z,100099.65
2024-04-19T09:29:43.607Z,100095.98
2024-04-19T09:32:11.406Z,100088.85
2024-04-19T09:34:40.531Z,100084.34
2024-04-19T09:37:08.464Z,100081.98
2024-04-19T09:39:36.341Z,100083.52
2024-04-19T09:42:06.333Z,100083.67
2024-04-19T09:44:34.091Z,100080.66
2024-04-19T09:47:06.101Z,100085.31
2024-04-19T09:49:34.000Z,100081.38
2024-04-19T09:52:02.663Z,100072.08
2024-04-19T09:54:35.223Z,100068.35
2024-04-19T09:57:04.879Z,100065.61
2024-04-19T09:59:35.659Z,100061.69
2024-04-19T10:02:06.615Z,100054.71
2024-04-19T10:04:45.569Z,100040.34
2024-04-19T10:07:15.424Z,100039.15
2024-04-19T10:09:43.919Z,100034.09
2024-04-19T10:12:13.290Z,100028.31
2024-04-19T10:14:41.322Z,100026.14
2024-04-19T10:17:08.948Z,100024.60
2024-04-19T10:19:45.507Z,100017.36
2024-04-19T10:22:23.679Z,100018.36
2024-04-19T10:25:01.336Z,100008.44
2024-04-19T10:27:30.641Z,100004.11
2024-04-19T10:30:00.880Z,100003.23
2024-04-19T10:32:30.297Z,99995.55
2024-04-19T10:34:59.218Z,99997.23
2024-04-19T10:37:31.155Z,99992.04
2024-04-19T10:39:58.738Z,99991.36
2024-04-19T10:42:26.444Z,99990.02
2024-04-19T10:44:54.421Z,99988.05
2024-04-19T10:47:24.702Z,99987.69
2024-04-19T10:49:53.617Z,99982.59
2024-04-19T10:52:23.627Z,99976.85
2024-04-19T10:54:51.280Z,99975.50
2024-04-19T10:57:20.282Z,99976.95
2024-04-19T10:59:47.848Z,99971.84
2024-04-19T11:02:17.300Z,99968.14
2024-04-19T11:04:45.518Z,99966.63
2024-04-19T11:07:13.329Z,99968.14
2024-04-19T11:09:41.618Z,99970.29
2024-04-19T11:12:10.147Z,99975.65
2024-04-19T11:14:37.843Z,99973.90
2024-04-19T11:17:11.382Z,99974.84
2024-04-19T11:19:39.691Z,99976.76
2024-04-19T11:22:09.675Z,99979.45
2024-04-19T11:24:39.484Z,99975.63
2024-04-19T11:27:08.914Z,99970.13
2024-04-19T11:29:36.890Z,99961.49
2024-04-19T11:32:07.718Z,99950.46
2024-04-19T11:34:40.219Z,99953.17
2024-04-19T11:37:11.719Z,99953.08
2024-04-19T11:39:41.506Z,99947.77
2024-04-19T11:42:10.410Z,99944.05
2024-04-19T11:44:45.553Z,99945.75
2024-04-19T11:47:13.307Z,99937.34
2024-04-19T11:49:43.636Z,99942.39
2024-04-19T11:52:11.241Z,99941.27
2024-04-19T11:54:39.023Z,99945.53
2024-04-19T11:57:07.402Z,99941.78
2024-04-19T11:59:35.936Z,99936.92
2024-04-19T12:02:03.802Z,99936.60
2024-04-19T12:04:31.598Z,99933.89
2024-04-19T12:07:00.670Z,99933.24
2024-04-19T12:09:28.945Z,99924.26
2024-04-19T12:15:23.993Z,99921.91
2024-04-19T12:17:30.446Z,99909.08
2024-04-19T12:20:08.000Z,99918.70
2024-04-19T12:22:48.564Z,99915.88
2024-04-19T12:25:23.082Z,99914.23
2024-04-19T12:27:51.185Z,99917.02
2024-04-19T12:30:24.479Z,99917.35
2024-04-19T12:32:52.227Z,99915.46
2024-04-19T12:35:19.867Z,99908.13
2024-04-19T12:37:50.388Z,99903.66
2024-04-19T12:40:19.036Z,99896.77
2024-04-19T12:42:47.254Z,99891.24
2024-04-19T12:45:15.580Z,99884.86
2024-04-19T12:48:11.155Z,99879.66
2024-04-19T12:50:38.885Z,99886.53
2024-04-19T12:53:06.603Z,99885.62
2024-04-19T12:55:35.764Z,99884.73
2024-04-19T12:58:03.384Z,99888.77
2024-04-19T13:00:33.346Z,99894.73
2024-04-19T13:03:01.851Z,99900.83
2024-04-19T13:05:33.022Z,99893.34
2024-04-19T13:08:00.914Z,99893.61
2024-04-19T13:10:28.878Z,99885.01
2024-04-19T13:12:57.735Z,99874.55
2024-04-19T13:15:25.685Z,99880.26
2024-04-19T13:17:54.260Z,99877.84
2024-04-19T13:20:21.886Z,99871.61
2024-04-19T13:22:49.486Z,99866.58
2024-04-19T13:25:20.812Z,99866.09
2024-04-19T13:27:48.461Z,99862.30
2024-04-19T13:30:16.060Z,99859.96
2024-04-19T13:32:44.659Z,99856.45
2024-04-19T13:35:14.285Z,99848.28
2024-04-19T13:37:41.966Z,99853.31
2024-04-19T13:40:11.180Z,99849.40
2024-04-19T13:42:39.636Z,99846.64
2024-04-19T13:45:09.162Z,99845.44
2024-04-19T13:47:37.400Z,99839.75
2024-04-19T13:50:07.255Z,99836.88
2024-04-19T13:52:34.857Z,99835.64
2024-04-19T13:55:06.218Z,99830.72
2024-04-19T13:57:34.497Z,99820.92
2024-04-19T14:00:06.233Z,99826.23
2024-04-19T14:02:35.159Z,99827.70
2024-04-19T14:05:04.002Z,99825.90
2024-04-19T14:07:31.749Z,99826.58
2024-04-19T14:10:00.667Z,99821.20
2024-04-19T14:12:30.834Z,99821.41
2024-04-19T14:15:02.298Z,99823.05
2024-04-19T14:17:31.111Z,99821.40
2024-04-19T14:20:00.844Z,99823.58
2024-04-19T14:22:28.829Z,99828.95
2024-04-19T14:24:56.554Z,99827.64
2024-04-19T14:27:26.074Z,99824.78
2024-04-19T14:29:57.202Z,99820.79
2024-04-19T14:32:28.894Z,99817.83
2024-04-19T14:34:56.858Z,99815.72
2024-04-19T14:37:24.805Z,99816.02
2024-04-19T14:39:52.627Z,99813.43
2024-04-19T14:42:22.351Z,99812.41
2024-04-19T14:45:01.921Z,99812.16
2024-04-19T14:47:31.342Z,99809.52
2024-04-19T14:50:00.052Z,99810.54
2024-04-19T14:52:29.934Z,99809.52
2024-04-19T14:54:58.013Z,99807.94
2024-04-19T14:57:26.866Z,99809.54
2024-04-19T15:00:01.342Z,99811.20
2024-04-19T15:02:36.134Z,99814.85
2024-04-19T15:05:03.948Z,99813.39
2024-04-19T15:07:32.457Z,99811.67
2024-04-19T15:10:00.747Z,99807.08
2024-04-19T15:12:30.836Z,99818.48
2024-04-19T15:14:59.909Z,99817.64
2024-04-19T15:17:27.911Z,99814.51
2024-04-19T15:19:56.542Z,99819.93
2024-04-19T15:22:25.931Z,99814.40
2024-04-19T15:24:53.665Z,99814.30
2024-04-19T15:27:21.300Z,99814.86
2024-04-19T15:29:49.299Z,99807.03
2024-04-19T15:32:19.879Z,99810.04
2024-04-19T15:34:48.620Z,99808.33
2024-04-19T15:37:17.102Z,99807.27
2024-04-19T15:39:48.744Z,99799.20
2024-04-19T15:42:16.952Z,99795.48
2024-04-19T15:44:48.078Z,99795.45
2024-04-19T15:47:15.995Z,99797.61
2024-04-19T15:49:47.194Z,99797.25
2024-04-19T15:52:16.933Z,99798.69
2024-04-19T15:54:44.556Z,99799.20
2024-04-19T15:57:13.241Z,99795.49
2024-04-19T15:59:46.713Z,99802.70
2024-04-19T16:02:14.685Z,99803.40
2024-04-19T16:04:45.651Z,99803.38
2024-04-19T16:07:14.170Z,99801.30
2024-04-19T16:09:41.983Z,99792.11
2024-04-19T16:12:09.959Z,99803.41
2024-04-19T16:14:38.111Z,99801.13
2024-04-19T16:17:06.083Z,99803.34
2024-04-19T16:19:37.592Z,99805.45
2024-04-19T16:22:05.863Z,99808.76
2024-04-19T16:24:34.025Z,99811.45
2024-04-19T16:27:03.118Z,99815.66
2024-04-19T16:29:31.900Z,99818.58
2024-04-19T16:31:59.502Z,99820.35
2024-04-19T16:34:27.097Z,99815.07
2024-04-19T16:36:55.045Z,99818.59
2024-04-19T16:39:22.726Z,99812.59
2024-04-19T16:41:50.457Z,99820.05
2024-04-19T16:44:20.830Z,99825.17
2024-04-19T16:46:50.697Z,99825.37
2024-04-19T16:49:19.394Z,99826.44
2024-04-19T16:51:57.724Z,99829.20
2024-04-19T16:54:33.475Z,99823.10
2024-04-19T16:57:02.154Z,99828.54
2024-04-19T16:59:29.759Z,99827.86
2024-04-19T17:01:57.711Z,99826.11
2024-04-19T17:04:26.223Z,99824.54
2024-04-19T17:06:56.893Z,99829.10
2024-04-19T17:09:27.055Z,99831.20
2024-04-19T17:11:55.464Z,99829.51
2024-04-19T17:14:24.662Z,99830.11
2024-04-19T17:16:55.435Z,99825.64
2024-04-19T17:19:26.105Z,99826.83
2024-04-19T17:21:55.106Z,99826.31
2024-04-19T17:24:23.303Z,99829.85
2024-04-19T17:26:55.478Z,99828.05
2024-04-19T17:29:23.174Z,99830.30
2024-04-19T17:31:57.764Z,99831.53
2024-04-19T17:34:25.373Z,99832.66
2024-04-19T17:36:54.577Z,99831.23
2024-04-19T17:39:22.675Z,99833.29
2024-04-19T17:41:50.246Z,99828.39
2024-04-19T17:44:18.687Z,99834.55
2024-04-19T17:49:46.995Z,99837.96
2024-04-19T17:52:15.586Z,99836.23
2024-04-19T17:54:50.084Z,99841.45
2024-04-19T17:57:19.010Z,99840.80
2024-04-19T17:59:51.674Z,99843.27
2024-04-19T18:02:28.372Z,99849.48
2024-04-19T18:04:57.729Z,99845.55
2024-04-19T18:07:27.905Z,99847.00
2024-04-19T18:09:56.682Z,99847.27
2024-04-19T18:12:24.494Z,99848.06
2024-04-19T18:14:52.345Z,99854.78
2024-04-19T18:17:22.803Z,99853.42
2024-04-19T18:20:16.145Z,99856.81
2024-04-19T18:22:45.119Z,99855.96
2024-04-19T18:25:14.052Z,99859.44
2024-04-19T18:27:44.633Z,99863.09
2024-04-19T18:30:19.502Z,99864.41
2024-04-19T18:32:48.897Z,99867.79
2024-04-19T18:35:23.544Z,99870.15
2024-04-19T18:37:54.017Z,99871.39
2024-04-19T18:40:26.370Z,99870.79
2024-04-19T18:42:54.284Z,99872.54
2024-04-19T18:45:28.645Z,99875.64
2024-04-19T18:47:58.592Z,99879.59
2024-04-19T18:50:27.376Z,99877.02
2024-04-19T18:52:57.003Z,99883.98
2024-04-19T18:58:26.123Z,99885.40
2024-04-19T19:00:55.626Z,99885.52
2024-04-19T19:03:26.312Z,99888.23
2024-04-19T19:06:14.953Z,99887.73
2024-04-19T19:08:46.866Z,99890.89
2024-04-19T19:11:34.031Z,99893.02
2024-04-19T19:14:08.420Z,99881.27
2024-04-19T19:16:38.568Z,99891.95
2024-04-19T19:19:16.523Z,99886.02
2024-04-19T19:21:54.599Z,99892.39
2024-04-19T19:24:42.788Z,99895.22
2024-04-19T19:30:46.668Z,99892.45
2024-04-19T19:33:18.890Z,99894.00
2024-04-19T19:36:11.192Z,99890.85
2024-04-19T19:38:43.688Z,99890.81
2024-04-19T19:41:13.678Z,99896.27
2024-04-19T19:43:42.329Z,99898.55
2024-04-19T19:46:11.508Z,99897.30
2024-04-19T19:48:40.594Z,99896.77
2024-04-19T19:51:20.073Z,99897.11
2024-04-19T19:53:50.019Z,99894.70
2024-04-19T19:56:20.529Z,99895.39
2024-04-19T19:58:49.736Z,99893.75
2024-04-19T20:01:48.008Z,99898.55
2024-04-19T20:04:34.229Z,99897.73
2024-04-19T20:07:03.088Z,99897.59
2024-04-19T20:09:31.117Z,99899.19
2024-04-19T20:12:03.093Z,99901.02
2024-04-19T20:17:28.953Z,99903.14
2024-04-19T20:19:58.574Z,99905.20
2024-04-19T20:22:26.121Z,99910.73
2024-04-19T20:24:53.940Z,99909.23
2024-04-19T20:27:23.275Z,99915.02
2024-04-19T20:29:50.898Z,99915.54
2024-04-19T20:32:18.786Z,99917.23
2024-04-19T20:34:46.971Z,99910.26
2024-04-19T20:37:14.976Z,99921.85
2024-04-19T20:39:42.744Z,99914.94
2024-04-19T20:42:10.357Z,99919.66
2024-04-19T20:44:39.990Z,99922.81
2024-04-19T20:47:09.131Z,99925.79
2024-04-19T20:49:37.662Z,99925.00
2024-04-19T20:52:05.690Z,99930.18
2024-04-19T20:54:34.355Z,99936.35
2024-04-19T20:57:05.800Z,99931.97
2024-04-19T20:59:39.523Z,99936.85
2024-04-19T21:02:07.633Z,99940.71
2024-04-19T21:04:46.528Z,99941.63
2024-04-19T21:07:17.659Z,99941.58
2024-04-19T21:09:55.506Z,99945.79
2024-04-19T21:12:31.601Z,99947.14
2024-04-19T21:15:20.053Z,99951.84
2024-04-19T21:17:51.970Z,99951.92
2024-04-19T21:20:20.045Z,99956.57
2024-04-19T21:22:47.760Z,99964.13
2024-04-19T21:25:19.371Z,99964.83
2024-04-19T21:27:51.311Z,99959.56
2024-04-19T21:30:22.704Z,99967.08
2024-04-19T21:32:51.712Z,99971.63
2024-04-19T21:35:25.111Z,99974.10
2024-04-19T21:37:54.113Z,99977.26
2024-04-19T21:40:27.072Z,99978.46
2024-04-19T21:42:56.693Z,99982.39
2024-04-19T21:45:26.068Z,99985.23
2024-04-19T21:47:54.384Z,99991.42
2024-04-19T21:50:23.904Z,99990.14
2024-04-19T21:52:51.762Z,99992.56
2024-04-19T21:55:19.443Z,99993.52
2024-04-19T21:57:47.680Z,99997.11
2024-04-19T22:00:18.884Z,100000.17
2024-04-19T22:02:47.192Z,100003.45
2024-04-19T22:05:15.571Z,99995.13
2024-04-19T22:07:45.384Z,100002.66
2024-04-19T22:10:13.152Z,100007.55
2024-04-19T22:12:40.788Z,100005.50
2024-04-19T22:15:09.167Z,100005.08
2024-04-19T22:17:37.765Z,100012.61
2024-04-19T22:20:09.150Z,100019.98
2024-04-19T22:22:36.851Z,100010.49
2024-04-19T22:25:05.626Z,100017.61
2024-04-19T22:27:34.846Z,100017.96
2024-04-19T22:30:10.108Z,100016.50
2024-04-19T22:33:00.091Z,100025.80
2024-04-19T22:35:28.894Z,100027.96
2024-04-19T22:37:56.449Z,100034.60
2024-04-19T22:40:23.991Z,100033.77
2024-04-19T22:42:54.690Z,100039.32
2024-04-19T22:45:22.316Z,100038.71
2024-04-19T22:47:49.857Z,100043.72
2024-04-19T22:50:17.440Z,100047.52
2024-04-19T22:52:44.923Z,100051.13
2024-04-19T22:55:12.463Z,100053.23
2024-04-19T22:57:40.086Z,100054.00
2024-04-19T23:00:08.474Z,100052.78
2024-04-19T23:02:36.224Z,100057.95
2024-04-19T23:05:04.051Z,100056.62
2024-04-19T23:07:31.603Z,100057.95
2024-04-19T23:09:59.308Z,100063.45
2024-04-19T23:12:26.919Z,100066.89
2024-04-19T23:14:54.497Z,100066.23
2024-04-19T23:17:23.165Z,100061.28
2024-04-19T23:19:51.172Z,100071.50
2024-04-19T23:22:18.676Z,100071.19
2024-04-19T23:24:46.784Z,100077.14
2024-04-19T23:27:14.300Z,100082.13
2024-04-19T23:29:42.871Z,100083.05
2024-04-19T23:32:10.960Z,100083.27
2024-04-19T23:34:38.679Z,100084.04
2024-04-19T23:37:06.256Z,100087.62
2024-04-19T23:39:33.839Z,100089.05
2024-04-19T23:42:01.405Z,100090.27
2024-04-19T23:44:28.933Z,100092.25
2024-04-19T23:46:56.493Z,100096.88
2024-04-19T23:49:24.041Z,100097.02
2024-04-19T23:51:52.628Z,100100.59
2024-04-19T23:54:20.229Z,100105.95
2024-04-19T23:56:47.798Z,100111.60
2024-04-19T23:59:15.561Z,100114.97
